createdAt,value
2018-03-20T00:01:14.051Z,-2.50
2018-03-20T00:03:41.687Z,-2.50
2018-03-20T00:06:10.033Z,-2.40
2018-03-20T00:08:37.585Z,-2.40
2018-03-20T00:11:05.128Z,-2.40
2018-03-20T00:13:32.975Z,-2.50
2018-03-20T00:16:00.518Z,-2.50
2018-03-20T00:18:28.859Z,-2.50
2018-03-20T00:20:56.387Z,-2.50
2018-03-20T00:23:23.921Z,-2.50
2018-03-20T00:25:51.469Z,-2.50
2018-03-20T00:28:19.030Z,-2.60
2018-03-20T00:30:47.379Z,-2.70
2018-03-20T00:33:14.943Z,-2.70
2018-03-20T00:35:42.488Z,-2.70
2018-03-20T00:38:10.787Z,-2.70
2018-03-20T00:40:38.329Z,-2.70
2018-03-20T00:43:06.661Z,-2.70
2018-03-20T00:45:34.200Z,-2.70
2018-03-20T00:48:01.746Z,-2.60
2018-03-20T00:50:30.064Z,-2.80
2018-03-20T00:52:57.605Z,-2.80
2018-03-20T00:55:25.170Z,-2.80
2018-03-20T00:57:52.722Z,-2.80
2018-03-20T01:00:21.023Z,-2.90
2018-03-20T01:02:48.547Z,-2.90
2018-03-20T01:05:16.104Z,-2.90
2018-03-20T01:07:43.693Z,-2.90
2018-03-20T01:10:11.276Z,-2.90
2018-03-20T01:12:39.592Z,-3.00
2018-03-20T01:15:07.124Z,-3.00
2018-03-20T01:17:35.505Z,-3.00
2018-03-20T01:20:03.015Z,-3.00
2018-03-20T01:22:30.554Z,-2.90
2018-03-20T01:24:58.090Z,-3.00
2018-03-20T01:27:26.404Z,-3.00
2018-03-20T01:29:53.949Z,-3.00
2018-03-20T01:32:22.643Z,-3.00
2018-03-20T01:34:50.908Z,-3.00
2018-03-20T01:37:19.309Z,-3.00
2018-03-20T01:39:46.854Z,-3.00
2018-03-20T01:42:15.159Z,-3.00
2018-03-20T01:44:43.000Z,-3.00
2018-03-20T01:47:10.584Z,-3.00
2018-03-20T01:49:38.164Z,-3.10
2018-03-20T01:52:05.703Z,-3.10
2018-03-20T01:54:33.261Z,-3.10
2018-03-20T01:57:00.884Z,-3.10
2018-03-20T01:59:28.443Z,-3.10
2018-03-20T02:01:56.013Z,-3.00
2018-03-20T02:04:23.546Z,-3.00
2018-03-20T02:06:51.842Z,-3.00
2018-03-20T02:09:19.415Z,-3.10
2018-03-20T02:11:46.966Z,-3.10
2018-03-20T02:14:15.389Z,-3.20
2018-03-20T02:16:42.989Z,-3.30
2018-03-20T02:19:10.525Z,-3.30
2018-03-20T02:21:38.084Z,-3.30
2018-03-20T02:24:05.625Z,-3.30
2018-03-20T02:26:33.190Z,-3.40
2018-03-20T02:29:00.739Z,-3.40
2018-03-20T02:31:29.157Z,-3.40
2018-03-20T02:33:56.700Z,-3.40
2018-03-20T02:36:24.314Z,-3.40
2018-03-20T02:38:51.942Z,-3.40
2018-03-20T02:41:19.483Z,-3.40
2018-03-20T02:43:47.796Z,-3.50
2018-03-20T02:46:21.294Z,-3.40
2018-03-20T02:48:48.829Z,-3.50
2018-03-20T02:51:17.543Z,-3.50
2018-03-20T02:53:45.085Z,-3.50
2018-03-20T02:56:13.403Z,-3.50
2018-03-20T02:58:40.948Z,-3.50
2018-03-20T03:01:09.306Z,-3.60
2018-03-20T03:03:36.879Z,-3.60
2018-03-20T03:06:04.487Z,-3.60
2018-03-20T03:08:32.103Z,-3.60
2018-03-20T03:10:59.651Z,-3.60
2018-03-20T03:13:27.210Z,-3.60
2018-03-20T03:15:54.770Z,-3.60
2018-03-20T03:18:22.476Z,-3.70
2018-03-20T03:20:50.086Z,-3.70
2018-03-20T03:23:17.695Z,-3.70
2018-03-20T03:25:45.244Z,-3.70
2018-03-20T03:28:12.826Z,-3.70
2018-03-20T03:30:40.375Z,-3.70
2018-03-20T03:33:07.909Z,-3.70
2018-03-20T03:35:35.460Z,-3.70
2018-03-20T03:38:03.774Z,-3.60
2018-03-20T03:40:31.339Z,-3.60
2018-03-20T03:42:58.880Z,-3.60
2018-03-20T03:45:26.410Z,-3.60
2018-03-20T03:47:54.031Z,-3.60
2018-03-20T03:50:21.587Z,-3.60
2018-03-20T03:52:49.152Z,-3.70
2018-03-20T03:55:16.836Z,-3.60
2018-03-20T03:57:44.370Z,-3.70
2018-03-20T04:00:12.656Z,-3.70
2018-03-20T04:02:40.192Z,-3.70
2018-03-20T04:05:07.856Z,-3.70
2018-03-20T04:07:35.391Z,-3.70
2018-03-20T04:10:02.931Z,-3.80
2018-03-20T04:12:30.470Z,-3.90
2018-03-20T04:14:58.863Z,-3.90
2018-03-20T04:17:27.191Z,-4.00
2018-03-20T04:19:54.720Z,-4.00
2018-03-20T04:22:22.261Z,-4.00
2018-03-20T04:24:50.567Z,-4.10
2018-03-20T04:27:18.224Z,-4.10
2018-03-20T04:29:46.564Z,-4.10
2018-03-20T04:32:14.110Z,-4.20
2018-03-20T04:34:41.639Z,-4.20
2018-03-20T04:37:09.950Z,-4.30
2018-03-20T04:39:37.545Z,-4.40
2018-03-20T04:42:05.107Z,-4.40
2018-03-20T04:44:32.634Z,-4.40
2018-03-20T04:47:00.164Z,-4.50
2018-03-20T04:49:27.713Z,-4.50
2018-03-20T04:51:55.254Z,-4.50
2018-03-20T04:54:22.827Z,-4.60
2018-03-20T04:56:50.357Z,-4.60
2018-03-20T04:59:17.922Z,-4.60
2018-03-20T05:01:45.471Z,-4.70
2018-03-20T05:04:13.766Z,-4.80
2018-03-20T05:06:41.630Z,-4.90
2018-03-20T05:09:09.940Z,-4.90
2018-03-20T05:11:37.492Z,-5.00
2018-03-20T05:14:05.028Z,-5.00
2018-03-20T05:16:33.327Z,-5.00
2018-03-20T05:19:07.182Z,-4.90
2018-03-20T05:21:38.162Z,-4.90
2018-03-20T05:24:06.486Z,-4.90
2018-03-20T05:26:34.037Z,-4.90
2018-03-20T05:29:01.580Z,-4.90
2018-03-20T05:31:29.891Z,-4.90
2018-03-20T05:33:57.435Z,-4.90
2018-03-20T05:36:25.760Z,-4.80
2018-03-20T05:38:53.310Z,-4.80
2018-03-20T05:41:20.862Z,-4.70
2018-03-20T05:43:48.418Z,-4.70
2018-03-20T05:49:20.921Z,-4.70
2018-03-20T05:51:53.360Z,-4.60
2018-03-20T05:54:21.670Z,-4.70
2018-03-20T05:56:49.215Z,-4.70
2018-03-20T05:59:17.549Z,-4.80
2018-03-20T06:01:45.102Z,-4.80
2018-03-20T06:04:12.653Z,-4.70
2018-03-20T06:06:40.188Z,-4.70
2018-03-20T06:09:08.502Z,-4.70
2018-03-20T06:11:36.057Z,-4.70
2018-03-20T06:14:03.599Z,-4.70
2018-03-20T06:16:31.154Z,-4.70
2018-03-20T06:18:58.683Z,-4.70
2018-03-20T06:21:26.219Z,-4.70
2018-03-20T06:23:53.782Z,-4.70
2018-03-20T06:26:22.126Z,-4.60
2018-03-20T06:28:49.659Z,-4.60
2018-03-20T06:31:17.202Z,-4.60
2018-03-20T06:33:44.741Z,-4.50
2018-03-20T06:36:12.554Z,-4.50
2018-03-20T06:38:40.093Z,-4.40
2018-03-20T06:41:08.574Z,-4.30
2018-03-20T06:43:36.911Z,-4.20
2018-03-20T06:46:04.436Z,-4.20
2018-03-20T06:48:32.310Z,-4.10
2018-03-20T06:50:59.890Z,-4.10
2018-03-20T06:53:27.436Z,-4.00
2018-03-20T06:55:55.750Z,-3.80
2018-03-20T06:58:23.284Z,-3.90
2018-03-20T07:00:51.602Z,-3.60
2018-03-20T07:03:19.138Z,-3.70
2018-03-20T07:05:46.678Z,-3.50
2018-03-20T07:08:14.986Z,-3.30
2018-03-20T07:10:42.526Z,-3.30
2018-03-20T07:13:10.107Z,-3.20
2018-03-20T07:15:38.402Z,-3.00
2018-03-20T07:18:05.941Z,-3.00
2018-03-20T07:20:34.251Z,-3.00
2018-03-20T07:23:01.789Z,-3.00
2018-03-20T07:25:30.142Z,-2.80
2018-03-20T07:27:57.711Z,-2.80
2018-03-20T07:30:26.015Z,-2.70
2018-03-20T07:32:53.566Z,-2.70
2018-03-20T07:35:21.200Z,-2.60
2018-03-20T07:37:48.774Z,-2.50
2018-03-20T07:40:16.318Z,-2.50
2018-03-20T07:42:43.857Z,-2.40
2018-03-20T07:45:12.219Z,-2.30
2018-03-20T07:47:39.771Z,-2.30
2018-03-20T07:50:07.326Z,-2.20
2018-03-20T07:52:34.923Z,-2.20
2018-03-20T07:55:02.464Z,-2.10
2018-03-20T07:57:30.781Z,-1.90
2018-03-20T07:59:59.094Z,-1.90
2018-03-20T08:02:26.652Z,-1.90
2018-03-20T08:04:54.206Z,-1.70
2018-03-20T08:07:22.515Z,-1.00
2018-03-20T08:09:50.093Z,-1.00
2018-03-20T08:12:17.640Z,-0.70
2018-03-20T08:14:45.180Z,-0.30
2018-03-20T08:17:13.484Z,0.10
2018-03-20T08:19:41.019Z,0.10
2018-03-20T08:22:09.311Z,0.10
2018-03-20T08:24:36.860Z,0.10
2018-03-20T08:27:04.875Z,0.10
2018-03-20T08:29:32.406Z,0.10
2018-03-20T08:32:00.707Z,0.40
2018-03-20T08:34:29.020Z,0.50
2018-03-20T08:36:56.543Z,0.50
2018-03-20T08:39:24.871Z,0.80
2018-03-20T08:41:52.402Z,0.80
2018-03-20T08:44:19.989Z,0.90
2018-03-20T08:46:47.466Z,1.20
2018-03-20T08:49:15.134Z,1.20
2018-03-20T08:51:42.707Z,1.50
2018-03-20T08:54:10.236Z,1.80
2018-03-20T08:56:37.782Z,1.90
2018-03-20T08:59:06.139Z,2.30
2018-03-20T09:01:33.669Z,2.20
2018-03-20T09:04:01.206Z,2.50
2018-03-20T09:06:28.913Z,2.80
2018-03-20T09:08:56.417Z,2.90
2018-03-20T09:11:23.970Z,3.00
2018-03-20T09:13:51.486Z,3.00
2018-03-20T09:16:19.099Z,3.10
2018-03-20T09:18:46.638Z,3.20
2018-03-20T09:21:14.173Z,3.10
2018-03-20T09:23:41.816Z,3.00
2018-03-20T09:26:09.360Z,3.00
2018-03-20T09:28:36.900Z,3.00
2018-03-20T09:31:04.425Z,2.90
2018-03-20T09:33:32.745Z,2.80
2018-03-20T09:36:00.343Z,2.80
2018-03-20T09:38:27.869Z,2.70
2018-03-20T09:40:55.720Z,2.60
2018-03-20T09:43:23.346Z,2.30
2018-03-20T09:45:50.839Z,2.10
2018-03-20T09:48:19.138Z,1.70
2018-03-20T09:50:46.663Z,1.70
2018-03-20T09:53:14.239Z,1.40
2018-03-20T09:55:41.768Z,1.20
2018-03-20T09:58:09.445Z,1.30
2018-03-20T10:00:36.981Z,1.20
2018-03-20T10:03:04.508Z,1.30
2018-03-20T10:05:33.380Z,1.70
2018-03-20T10:08:00.909Z,1.70
2018-03-20T10:10:28.436Z,1.80
2018-03-20T10:12:56.730Z,2.20
2018-03-20T10:15:25.022Z,2.10
2018-03-20T10:17:52.598Z,2.50
2018-03-20T10:20:20.134Z,2.60
2018-03-20T10:22:48.445Z,3.00
2018-03-20T10:25:15.966Z,2.90
2018-03-20T10:27:43.561Z,3.00
2018-03-20T10:30:11.120Z,2.90
2018-03-20T10:32:39.425Z,2.80
2018-03-20T10:35:06.968Z,2.80
2018-03-20T10:37:35.269Z,2.90
2018-03-20T10:40:02.809Z,2.90
2018-03-20T10:42:31.127Z,3.00
2018-03-20T10:44:58.679Z,2.90
2018-03-20T10:47:26.225Z,3.10
2018-03-20T10:49:54.528Z,3.20
2018-03-20T10:52:22.059Z,3.20
2018-03-20T10:54:49.615Z,3.40
2018-03-20T10:57:17.148Z,3.50
2018-03-20T10:59:44.692Z,3.60
2018-03-20T11:02:17.792Z,3.50
2018-03-20T11:04:45.312Z,3.50
2018-03-20T11:07:13.619Z,3.70
2018-03-20T11:09:41.157Z,3.70
2018-03-20T11:12:08.742Z,3.60
2018-03-20T11:14:37.033Z,3.30
2018-03-20T11:17:04.568Z,3.30
2018-03-20T11:19:32.110Z,3.20
2018-03-20T11:21:59.649Z,3.10
2018-03-20T11:24:27.481Z,3.00
2018-03-20T11:26:55.897Z,3.20
2018-03-20T11:29:23.416Z,3.20
2018-03-20T11:31:51.025Z,3.30
2018-03-20T11:34:19.212Z,3.20
2018-03-20T11:36:46.981Z,3.10
2018-03-20T11:39:14.511Z,3.10
2018-03-20T11:41:42.852Z,3.40
2018-03-20T11:44:10.390Z,3.40
2018-03-20T11:46:37.931Z,3.70
2018-03-20T11:49:06.290Z,4.30
2018-03-20T11:51:33.822Z,4.20
2018-03-20T11:54:01.395Z,4.50
2018-03-20T11:56:29.692Z,4.70
2018-03-20T11:58:57.238Z,4.70
2018-03-20T12:01:25.564Z,4.80
2018-03-20T12:03:53.120Z,4.80
2018-03-20T12:06:20.687Z,4.70
2018-03-20T12:08:52.023Z,4.60
2018-03-20T12:11:19.549Z,4.30
2018-03-20T12:13:47.098Z,4.10
2018-03-20T12:16:15.389Z,4.00
2018-03-20T12:18:43.244Z,4.00
2018-03-20T12:21:11.562Z,4.00
2018-03-20T12:23:39.091Z,4.00
2018-03-20T12:26:07.386Z,3.90
2018-03-20T12:28:34.987Z,3.90
2018-03-20T12:31:02.555Z,3.90
2018-03-20T12:33:30.086Z,3.90
2018-03-20T12:35:57.656Z,3.80
2018-03-20T12:38:25.197Z,3.60
2018-03-20T12:40:53.498Z,3.70
2018-03-20T12:43:21.105Z,3.60
2018-03-20T12:45:48.698Z,3.60
2018-03-20T12:48:16.238Z,3.60
2018-03-20T12:50:43.786Z,3.50
2018-03-20T12:53:11.328Z,3.30
2018-03-20T12:55:39.198Z,3.30
2018-03-20T12:58:06.722Z,3.30
2018-03-20T13:00:34.251Z,3.30
2018-03-20T13:03:01.776Z,3.30
2018-03-20T13:05:30.090Z,3.30
2018-03-20T13:07:57.689Z,3.30
2018-03-20T13:10:25.260Z,3.30
2018-03-20T13:12:53.644Z,3.20
2018-03-20T13:15:21.202Z,3.20
2018-03-20T13:17:48.783Z,3.10
2018-03-20T13:20:16.315Z,3.10
2018-03-20T13:22:43.883Z,3.10
2018-03-20T13:25:11.432Z,3.00
2018-03-20T13:27:39.006Z,3.00
2018-03-20T13:30:06.551Z,3.00
2018-03-20T13:32:34.087Z,3.00
2018-03-20T13:35:01.612Z,2.90
2018-03-20T13:37:29.182Z,2.90
2018-03-20T13:39:56.742Z,2.80
2018-03-20T13:42:24.330Z,2.80
2018-03-20T13:44:51.878Z,2.80
2018-03-20T13:47:19.447Z,2.80
2018-03-20T13:49:46.986Z,2.90
2018-03-20T13:52:14.602Z,2.80
2018-03-20T13:54:42.145Z,2.90
2018-03-20T13:57:09.662Z,2.90
2018-03-20T13:59:37.973Z,3.10
2018-03-20T14:02:05.529Z,3.10
2018-03-20T14:04:33.172Z,3.10
2018-03-20T14:07:01.485Z,3.00
2018-03-20T14:09:29.039Z,3.00
2018-03-20T14:11:56.576Z,3.00
2018-03-20T14:14:24.189Z,3.00
2018-03-20T14:16:51.697Z,3.00
2018-03-20T14:19:19.250Z,3.00
2018-03-20T14:21:46.813Z,2.90
2018-03-20T14:24:14.375Z,2.90
2018-03-20T14:26:41.952Z,2.90
2018-03-20T14:29:09.638Z,2.90
2018-03-20T14:31:37.955Z,3.10
2018-03-20T14:34:05.486Z,3.00
2018-03-20T14:36:33.815Z,3.30
2018-03-20T14:39:01.440Z,3.20
2018-03-20T14:41:29.768Z,3.50
2018-03-20T14:43:57.373Z,3.50
2018-03-20T14:46:24.917Z,3.70
2018-03-20T14:48:52.466Z,3.70
2018-03-20T14:51:20.012Z,3.70
2018-03-20T14:53:47.557Z,3.70
2018-03-20T14:56:15.871Z,3.70
2018-03-20T14:58:43.467Z,3.70
2018-03-20T15:01:10.995Z,3.60
2018-03-20T15:03:38.525Z,3.60
2018-03-20T15:06:06.090Z,3.50
2018-03-20T15:08:33.633Z,3.60
2018-03-20T15:11:01.199Z,3.60
2018-03-20T15:13:28.750Z,3.70
2018-03-20T15:15:56.278Z,3.70
2018-03-20T15:18:23.904Z,3.80
2018-03-20T15:20:51.418Z,3.80
2018-03-20T15:23:19.030Z,3.80
2018-03-20T15:25:46.599Z,3.80
2018-03-20T15:28:14.135Z,3.90
2018-03-20T15:30:41.720Z,3.80
2018-03-20T15:33:09.357Z,3.90
2018-03-20T15:35:36.876Z,3.90
2018-03-20T15:38:04.417Z,4.00
2018-03-20T15:40:31.966Z,4.00
2018-03-20T15:42:59.800Z,4.00
2018-03-20T15:45:28.101Z,4.00
2018-03-20T15:47:55.690Z,4.00
2018-03-20T15:50:23.244Z,4.10
2018-03-20T15:52:50.808Z,4.10
2018-03-20T15:55:18.359Z,4.10
2018-03-20T15:57:46.011Z,4.10
2018-03-20T16:00:14.318Z,3.90
2018-03-20T16:02:41.860Z,3.90
2018-03-20T16:05:10.183Z,3.90
2018-03-20T16:07:37.768Z,3.80
2018-03-20T16:10:05.317Z,3.80
2018-03-20T16:12:32.855Z,3.80
2018-03-20T16:15:00.406Z,3.80
2018-03-20T16:17:28.108Z,3.80
2018-03-20T16:19:55.709Z,3.80
2018-03-20T16:22:23.248Z,3.80
2018-03-20T16:24:50.816Z,3.80
2018-03-20T16:27:18.368Z,3.90
2018-03-20T16:29:45.955Z,3.90
2018-03-20T16:32:13.786Z,4.00
2018-03-20T16:34:41.389Z,4.10
2018-03-20T16:37:08.896Z,4.10
2018-03-20T16:39:37.225Z,4.10
2018-03-20T16:42:04.763Z,4.10
2018-03-20T16:44:32.349Z,4.10
2018-03-20T16:46:59.900Z,4.10
2018-03-20T16:49:27.435Z,4.10
2018-03-20T16:51:55.787Z,4.00
2018-03-20T16:54:23.328Z,4.00
2018-03-20T16:56:50.894Z,3.90
2018-03-20T16:59:18.501Z,3.80
2018-03-20T17:01:46.032Z,3.80
2018-03-20T17:04:13.739Z,3.70
2018-03-20T17:06:41.269Z,3.50
2018-03-20T17:09:09.602Z,3.30
2018-03-20T17:11:37.952Z,3.20
2018-03-20T17:14:05.499Z,3.20
2018-03-20T17:16:33.048Z,3.10
2018-03-20T17:19:00.590Z,3.00
2018-03-20T17:21:28.227Z,3.00
2018-03-20T17:23:55.764Z,2.90
2018-03-20T17:26:23.309Z,2.90
2018-03-20T17:28:50.843Z,2.80
2018-03-20T17:31:19.155Z,2.50
2018-03-20T17:33:46.726Z,2.50
2018-03-20T17:36:14.295Z,2.40
2018-03-20T17:38:41.834Z,2.30
2018-03-20T17:41:09.377Z,2.20
2018-03-20T17:43:36.932Z,2.10
2018-03-20T17:46:04.511Z,2.00
2018-03-20T17:48:32.054Z,1.90
2018-03-20T17:50:59.605Z,1.80
2018-03-20T17:53:27.155Z,1.80
2018-03-20T17:55:54.759Z,1.80
2018-03-20T17:58:22.321Z,1.70
2018-03-20T18:00:50.624Z,1.70
2018-03-20T18:03:18.948Z,1.70
2018-03-20T18:05:46.485Z,1.70
2018-03-20T18:08:14.176Z,1.70
2018-03-20T18:10:41.739Z,1.60
2018-03-20T18:13:09.279Z,1.50
2018-03-20T18:15:37.581Z,1.40
2018-03-20T18:18:05.110Z,1.30
2018-03-20T18:20:32.649Z,1.30
2018-03-20T18:23:00.201Z,1.30
2018-03-20T18:25:27.762Z,1.30
2018-03-20T18:27:55.327Z,1.30
2018-03-20T18:30:22.862Z,1.30
2018-03-20T18:32:51.185Z,1.20
2018-03-20T18:35:18.758Z,1.20
2018-03-20T18:37:46.293Z,1.20
2018-03-20T18:40:13.880Z,1.10
2018-03-20T18:42:41.434Z,1.00
2018-03-20T18:45:08.985Z,0.90
2018-03-20T18:47:36.577Z,0.80
2018-03-20T18:50:04.133Z,0.70
2018-03-20T18:52:31.701Z,0.60
2018-03-20T18:54:59.289Z,0.60
2018-03-20T18:57:26.901Z,0.50
2018-03-20T18:59:55.260Z,0.50
2018-03-20T19:02:22.857Z,0.50
2018-03-20T19:04:51.190Z,0.40
2018-03-20T19:07:18.725Z,0.40
2018-03-20T19:09:46.396Z,0.40
2018-03-20T19:12:14.053Z,0.30
2018-03-20T19:14:41.643Z,0.20
2018-03-20T19:17:09.233Z,0.20
2018-03-20T19:19:36.809Z,0.20
2018-03-20T19:22:04.404Z,0.30
2018-03-20T19:24:32.826Z,0.20
2018-03-20T19:27:00.371Z,0.20
2018-03-20T19:29:27.937Z,0.20
2018-03-20T19:31:55.572Z,0.10
2018-03-20T19:34:23.203Z,0.10
2018-03-20T19:36:51.023Z,0.00
2018-03-20T19:39:19.377Z,-0.10
2018-03-20T19:41:47.059Z,-0.10
2018-03-20T19:44:14.720Z,-0.10
2018-03-20T19:46:42.320Z,-0.20
2018-03-20T19:49:10.008Z,-0.20
2018-03-20T19:51:37.613Z,-0.30
2018-03-20T19:54:05.193Z,-0.30
2018-03-20T19:56:32.835Z,-0.40
2018-03-20T19:59:01.219Z,-0.40
2018-03-20T20:01:28.924Z,-0.40
2018-03-20T20:03:57.299Z,-0.50
2018-03-20T20:06:24.926Z,-0.50
2018-03-20T20:08:52.518Z,-0.50
2018-03-20T20:11:20.134Z,-0.50
2018-03-20T20:13:47.737Z,-0.50
2018-03-20T20:16:15.372Z,-0.50
2018-03-20T20:18:42.946Z,-0.60
2018-03-20T20:21:10.643Z,-0.60
2018-03-20T20:23:38.269Z,-0.60
2018-03-20T20:26:06.102Z,-0.60
2018-03-20T20:28:33.750Z,-0.60
2018-03-20T20:31:01.375Z,-0.60
2018-03-20T20:33:28.984Z,-0.60
2018-03-20T20:35:56.577Z,-0.60
2018-03-20T20:38:24.968Z,-0.60
2018-03-20T20:40:53.421Z,-0.70
2018-03-20T20:43:20.957Z,-0.70
2018-03-20T20:45:48.553Z,-0.70
2018-03-20T20:48:16.176Z,-0.80
2018-03-20T20:50:43.788Z,-0.80
2018-03-20T20:53:11.367Z,-0.90
2018-03-20T20:55:38.926Z,-0.90
2018-03-20T20:58:06.587Z,-0.90
2018-03-20T21:00:34.169Z,-1.00
2018-03-20T21:03:01.748Z,-1.00
2018-03-20T21:05:30.067Z,-1.10
2018-03-20T21:07:58.476Z,-1.10
2018-03-20T21:10:26.050Z,-1.10
2018-03-20T21:12:53.607Z,-1.10
2018-03-20T21:15:21.992Z,-1.20
2018-03-20T21:17:49.530Z,-1.20
2018-03-20T21:20:17.109Z,-1.30
2018-03-20T21:22:44.663Z,-1.30
2018-03-20T21:25:12.222Z,-1.30
2018-03-20T21:27:39.793Z,-1.40
2018-03-20T21:30:07.370Z,-1.40
2018-03-20T21:32:34.921Z,-1.40
2018-03-20T21:35:02.501Z,-1.40
2018-03-20T21:37:30.051Z,-1.40
2018-03-20T21:39:57.652Z,-1.40
2018-03-20T21:42:25.291Z,-1.50
2018-03-20T21:44:52.844Z,-1.40
2018-03-20T21:47:20.384Z,-1.40
2018-03-20T21:49:48.799Z,-1.40
2018-03-20T21:52:16.444Z,-1.40
2018-03-20T21:54:44.758Z,-1.40
2018-03-20T21:57:12.867Z,-1.50
2018-03-20T21:59:40.427Z,-1.40
2018-03-20T22:02:08.010Z,-1.40
2018-03-20T22:04:36.040Z,-1.40
2018-03-20T22:07:03.585Z,-1.50
2018-03-20T22:09:31.896Z,-1.50
2018-03-20T22:11:59.759Z,-1.50
2018-03-20T22:14:27.360Z,-1.50
2018-03-20T22:16:54.964Z,-1.50
2018-03-20T22:19:23.292Z,-1.60
2018-03-20T22:21:50.843Z,-1.50
2018-03-20T22:24:18.396Z,-1.60
2018-03-20T22:26:45.979Z,-1.60
2018-03-20T22:29:13.559Z,-1.60
2018-03-20T22:31:41.100Z,-1.70
2018-03-20T22:34:08.720Z,-1.70
2018-03-20T22:36:36.353Z,-1.70
2018-03-20T22:39:04.419Z,-1.70
2018-03-20T22:41:32.124Z,-1.60
2018-03-20T22:43:59.841Z,-1.60
2018-03-20T22:46:27.377Z,-1.60
2018-03-20T22:48:54.944Z,-1.70
2018-03-20T22:51:22.482Z,-1.70
2018-03-20T22:53:52.650Z,-1.70
2018-03-20T22:56:21.034Z,-1.70
2018-03-20T22:58:49.345Z,-1.70
2018-03-20T23:01:16.909Z,-1.70
2018-03-20T23:03:44.472Z,-1.70
2018-03-20T23:06:12.074Z,-1.80
2018-03-20T23:08:39.596Z,-1.70
2018-03-20T23:11:07.140Z,-1.80
2018-03-20T23:13:35.461Z,-1.80
2018-03-20T23:16:03.349Z,-1.80
2018-03-20T23:18:30.913Z,-1.80
2018-03-20T23:20:59.360Z,-1.80
2018-03-20T23:23:27.835Z,-1.90
2018-03-20T23:25:56.503Z,-1.80
2018-03-20T23:28:24.056Z,-1.90
2018-03-20T23:30:51.935Z,-1.90
2018-03-20T23:33:19.478Z,-1.90
2018-03-20T23:35:47.014Z,-2.00
2018-03-20T23:38:14.541Z,-1.90
2018-03-20T23:40:42.090Z,-1.90
2018-03-20T23:43:09.654Z,-1.90
2018-03-20T23:45:37.187Z,-1.90
2018-03-20T23:48:05.257Z,-1.90
2018-03-20T23:50:33.386Z,-1.80
2018-03-20T23:53:00.981Z,-1.80
2018-03-20T23:55:28.547Z,-1.90
2018-03-20T23:57:56.866Z,-1.90
